Etusivu
METAR-TAF:

METAR-TAF

Lentoasemat :

Kemi-Tornion lentoasema

Kemi, Suomi

Leveyspiiri: 65-47N, Pituuspiiri: 024-35E, korkeus merenpinnasta: 15 m

Tämänhetkinen sää

Tämä raportti tehtiin 19 minuuttia sitten, kello 05.50 UTC
Tuuli 10 kn lännestä/lounaasta
Lämpötila 0°C
Kosteus 93%
Ilmanpaine 965 hPa
Näkyvyys 10 km tai enemmän
Muutamia pilviä 800 ft:n korkeudessa
Hajonneita pilviä 6000 ft:n korkeudessa
Hajonneita pilviä 9000 ft:n korkeudessa

METAR: EFKE 170550Z AUTO 25010KT 9999 FEW008 BKN060 BKN090 M00/M01 Q0965

Aika: 08:09 (06:09 UTC)

Sääennuste

Tämä raportti tehtiin 40 minuuttia sitten, kello 05.29 UTC
Ennuste voimassa 17. päivästä klo 06 UTC - 17. päivään klo 15 UTC
Tuuli 12 kn lännestä/lounaasta
Näkyvyys 10 km tai enemmän
Pilvistä 300 ft:n korkeudessa
Tulossa
17. päivästä klo 06 UTC - 17. päivään klo 08 UTC
Näkyvyys 10 km tai enemmän
ei pilviä alle 1500 m:ssä eikä cumulonimbus-pilviä

TAF: EFKE 170529Z 1706/1715 24012KT 9999 OVC003 BECMG 1706/1708 CAVOK

Säähavainnot ja -ennusteet yli 4000 lentoasemalta (METAR- ja TAF-raportit).

Käytössä olevat sääasemat on merkitty karttaan keltaisilla ja punaisilla pisteillä.

Aseta hiiri pisteen päälle nähdäksesi sääaseman nimen.

Klikkaa sitten nähdäksesi säähavainnot ja -ennusteet.

Kartan vaihtaminen: klikkaa mustalla rastilla varustettuja vihreitä pisteitä, niin voit zoomata sisään; viivalla varustettua vihreää pistettä, niin voit zoomata ulos tai vihreitä nuolia, niin pääset viereisille kartoille.


METAR-TAF: